sensor_id;sensor_type;location;lat;lon;timestamp;P1;durP1;ratioP1;P2;durP2;ratioP2
56405;SDS011;42305;51.444;-2.584;2022-08-07T00:00:14;3.05;;;3.05;;
56405;SDS011;42305;51.444;-2.584;2022-08-07T00:02:40;2.88;;;2.88;;
56405;SDS011;42305;51.444;-2.584;2022-08-07T00:05:06;2.70;;;2.70;;
56405;SDS011;42305;51.444;-2.584;2022-08-07T00:07:32;3.10;;;3.10;;
56405;SDS011;42305;51.444;-2.584;2022-08-07T00:09:58;2.80;;;2.80;;
56405;SDS011;42305;51.444;-2.584;2022-08-07T00:12:24;2.78;;;2.78;;
56405;SDS011;42305;51.444;-2.584;2022-08-07T00:14:50;2.50;;;2.50;;
56405;SDS011;42305;51.444;-2.584;2022-08-07T00:17:16;2.70;;;2.70;;
56405;SDS011;42305;51.444;-2.584;2022-08-07T00:19:42;3.00;;;3.00;;
56405;SDS011;42305;51.444;-2.584;2022-08-07T00:22:09;2.80;;;2.80;;
56405;SDS011;42305;51.444;-2.584;2022-08-07T00:24:35;2.95;;;2.95;;
56405;SDS011;42305;51.444;-2.584;2022-08-07T00:27:01;2.92;;;2.92;;
56405;SDS011;42305;51.444;-2.584;2022-08-07T00:29:27;2.72;;;2.72;;
56405;SDS011;42305;51.444;-2.584;2022-08-07T00:31:54;2.75;;;2.75;;
56405;SDS011;42305;51.444;-2.584;2022-08-07T00:34:26;2.80;;;2.80;;
56405;SDS011;42305;51.444;-2.584;2022-08-07T00:36:54;3.17;;;3.17;;
56405;SDS011;42305;51.444;-2.584;2022-08-07T00:39:20;2.92;;;2.92;;
56405;SDS011;42305;51.444;-2.584;2022-08-07T00:41:53;2.88;;;2.88;;
56405;SDS011;42305;51.444;-2.584;2022-08-07T00:44:20;2.85;;;2.85;;
56405;SDS011;42305;51.444;-2.584;2022-08-07T00:46:46;2.90;;;2.90;;
56405;SDS011;42305;51.444;-2.584;2022-08-07T00:49:12;3.10;;;3.10;;
56405;SDS011;42305;51.444;-2.584;2022-08-07T00:51:38;3.00;;;3.00;;
56405;SDS011;42305;51.444;-2.584;2022-08-07T00:54:05;3.05;;;3.05;;
56405;SDS011;42305;51.444;-2.584;2022-08-07T00:56:32;2.90;;;2.90;;
56405;SDS011;42305;51.444;-2.584;2022-08-07T00:58:58;3.03;;;3.03;;
56405;SDS011;42305;51.444;-2.584;2022-08-07T01:01:24;3.60;;;3.50;;
56405;SDS011;42305;51.444;-2.584;2022-08-07T01:03:50;3.13;;;3.13;;
56405;SDS011;42305;51.444;-2.584;2022-08-07T01:06:17;3.35;;;3.33;;
56405;SDS011;42305;51.444;-2.584;2022-08-07T01:08:43;3.60;;;3.50;;
56405;SDS011;42305;51.444;-2.584;2022-08-07T01:11:11;3.10;;;3.10;;
56405;SDS011;42305;51.444;-2.584;2022-08-07T01:13:37;3.10;;;3.10;;
56405;SDS011;42305;51.444;-2.584;2022-08-07T01:16:04;2.33;;;2.33;;
56405;SDS011;42305;51.444;-2.584;2022-08-07T01:18:30;3.00;;;3.00;;
56405;SDS011;42305;51.444;-2.584;2022-08-07T01:21:04;2.95;;;2.95;;
56405;SDS011;42305;51.444;-2.584;2022-08-07T01:23:30;3.20;;;3.20;;
56405;SDS011;42305;51.444;-2.584;2022-08-07T01:25:57;3.25;;;3.20;;
56405;SDS011;42305;51.444;-2.584;2022-08-07T01:28:23;2.97;;;2.97;;
56405;SDS011;42305;51.444;-2.584;2022-08-07T01:30:50;2.90;;;2.90;;
56405;SDS011;42305;51.444;-2.584;2022-08-07T01:33:16;3.30;;;3.30;;
56405;SDS011;42305;51.444;-2.584;2022-08-07T01:35:42;3.20;;;3.20;;
56405;SDS011;42305;51.444;-2.584;2022-08-07T01:38:08;3.03;;;3.03;;
56405;SDS011;42305;51.444;-2.584;2022-08-07T01:40:35;2.92;;;2.92;;
56405;SDS011;42305;51.444;-2.584;2022-08-07T01:43:01;3.13;;;3.13;;
56405;SDS011;42305;51.444;-2.584;2022-08-07T01:45:27;3.30;;;3.30;;
56405;SDS011;42305;51.444;-2.584;2022-08-07T01:47:53;3.35;;;3.30;;
56405;SDS011;42305;51.444;-2.584;2022-08-07T01:50:20;2.97;;;2.97;;
56405;SDS011;42305;51.444;-2.584;2022-08-07T01:52:47;3.47;;;3.40;;
56405;SDS011;42305;51.444;-2.584;2022-08-07T01:55:13;2.83;;;2.83;;
56405;SDS011;42305;51.444;-2.584;2022-08-07T01:57:40;3.60;;;3.50;;
56405;SDS011;42305;51.444;-2.584;2022-08-07T02:00:07;3.70;;;3.60;;
56405;SDS011;42305;51.444;-2.584;2022-08-07T02:02:55;3.10;;;3.10;;
56405;SDS011;42305;51.444;-2.584;2022-08-07T02:05:42;3.30;;;3.30;;
56405;SDS011;42305;51.444;-2.584;2022-08-07T02:08:10;3.40;;;3.30;;
56405;SDS011;42305;51.444;-2.584;2022-08-07T02:10:36;3.53;;;3.42;;
56405;SDS011;42305;51.444;-2.584;2022-08-07T02:13:03;3.50;;;3.40;;
56405;SDS011;42305;51.444;-2.584;2022-08-07T02:15:31;3.55;;;3.45;;
56405;SDS011;42305;51.444;-2.584;2022-08-07T02:17:57;3.60;;;3.50;;
56405;SDS011;42305;51.444;-2.584;2022-08-07T02:20:24;3.20;;;3.20;;
56405;SDS011;42305;51.444;-2.584;2022-08-07T02:22:51;3.45;;;3.35;;
56405;SDS011;42305;51.444;-2.584;2022-08-07T02:25:18;3.70;;;3.60;;
56405;SDS011;42305;51.444;-2.584;2022-08-07T02:27:46;3.70;;;3.60;;
56405;SDS011;42305;51.444;-2.584;2022-08-07T02:30:13;3.10;;;3.10;;
56405;SDS011;42305;51.444;-2.584;2022-08-07T02:32:39;3.45;;;3.35;;
56405;SDS011;42305;51.444;-2.584;2022-08-07T02:35:06;3.53;;;3.42;;
56405;SDS011;42305;51.444;-2.584;2022-08-07T02:37:35;3.72;;;3.63;;
56405;SDS011;42305;51.444;-2.584;2022-08-07T02:40:04;3.70;;;3.60;;
56405;SDS011;42305;51.444;-2.584;2022-08-07T02:42:31;3.70;;;3.60;;
56405;SDS011;42305;51.444;-2.584;2022-08-07T02:44:57;3.42;;;3.33;;
56405;SDS011;42305;51.444;-2.584;2022-08-07T02:47:24;3.80;;;3.70;;
56405;SDS011;42305;51.444;-2.584;2022-08-07T02:49:51;3.50;;;3.40;;
56405;SDS011;42305;51.444;-2.584;2022-08-07T02:52:22;3.80;;;3.70;;
56405;SDS011;42305;51.444;-2.584;2022-08-07T02:54:48;3.00;;;3.00;;
56405;SDS011;42305;51.444;-2.584;2022-08-07T02:57:15;3.80;;;3.70;;
56405;SDS011;42305;51.444;-2.584;2022-08-07T02:59:45;3.80;;;3.70;;
56405;SDS011;42305;51.444;-2.584;2022-08-07T03:02:14;3.50;;;3.40;;
56405;SDS011;42305;51.444;-2.584;2022-08-07T03:04:41;3.70;;;3.60;;
56405;SDS011;42305;51.444;-2.584;2022-08-07T03:07:07;3.80;;;3.70;;
56405;SDS011;42305;51.444;-2.584;2022-08-07T03:09:34;3.50;;;3.40;;
56405;SDS011;42305;51.444;-2.584;2022-08-07T03:12:01;3.90;;;3.80;;
56405;SDS011;42305;51.444;-2.584;2022-08-07T03:14:29;3.90;;;3.80;;
56405;SDS011;42305;51.444;-2.584;2022-08-07T03:16:55;3.60;;;3.50;;
56405;SDS011;42305;51.444;-2.584;2022-08-07T03:19:22;3.60;;;3.50;;
56405;SDS011;42305;51.444;-2.584;2022-08-07T03:21:48;3.40;;;3.30;;
56405;SDS011;42305;51.444;-2.584;2022-08-07T03:24:15;3.78;;;3.67;;
56405;SDS011;42305;51.444;-2.584;2022-08-07T03:26:41;3.83;;;3.72;;
56405;SDS011;42305;51.444;-2.584;2022-08-07T03:29:08;3.70;;;3.60;;
56405;SDS011;42305;51.444;-2.584;2022-08-07T03:31:36;3.80;;;3.70;;
56405;SDS011;42305;51.444;-2.584;2022-08-07T03:34:03;3.72;;;3.63;;
56405;SDS011;42305;51.444;-2.584;2022-08-07T03:36:31;3.83;;;3.72;;
56405;SDS011;42305;51.444;-2.584;2022-08-07T03:38:58;4.30;;;4.20;;
56405;SDS011;42305;51.444;-2.584;2022-08-07T03:41:27;3.80;;;3.70;;
56405;SDS011;42305;51.444;-2.584;2022-08-07T03:43:54;3.72;;;3.63;;
56405;SDS011;42305;51.444;-2.584;2022-08-07T03:46:21;3.90;;;3.80;;
56405;SDS011;42305;51.444;-2.584;2022-08-07T03:48:48;4.13;;;4.03;;
56405;SDS011;42305;51.444;-2.584;2022-08-07T03:51:14;4.30;;;4.20;;
56405;SDS011;42305;51.444;-2.584;2022-08-07T03:53:40;3.90;;;3.80;;
56405;SDS011;42305;51.444;-2.584;2022-08-07T03:56:06;4.18;;;4.07;;
56405;SDS011;42305;51.444;-2.584;2022-08-07T03:58:35;4.00;;;3.90;;
56405;SDS011;42305;51.444;-2.584;2022-08-07T04:01:01;4.20;;;4.10;;
56405;SDS011;42305;51.444;-2.584;2022-08-07T04:03:28;3.90;;;3.80;;
56405;SDS011;42305;51.444;-2.584;2022-08-07T04:05:54;3.80;;;3.70;;
56405;SDS011;42305;51.444;-2.584;2022-08-07T04:08:21;3.53;;;3.42;;
56405;SDS011;42305;51.444;-2.584;2022-08-07T04:10:48;3.90;;;3.80;;
56405;SDS011;42305;51.444;-2.584;2022-08-07T04:13:14;4.20;;;4.10;;
56405;SDS011;42305;51.444;-2.584;2022-08-07T04:15:41;4.65;;;4.55;;
56405;SDS011;42305;51.444;-2.584;2022-08-07T04:18:08;4.20;;;4.10;;
56405;SDS011;42305;51.444;-2.584;2022-08-07T04:20:36;4.22;;;4.13;;
56405;SDS011;42305;51.444;-2.584;2022-08-07T04:23:02;4.20;;;4.10;;
56405;SDS011;42305;51.444;-2.584;2022-08-07T04:25:28;3.90;;;3.80;;
56405;SDS011;42305;51.444;-2.584;2022-08-07T04:27:57;4.10;;;4.00;;
56405;SDS011;42305;51.444;-2.584;2022-08-07T04:30:24;4.30;;;4.20;;
56405;SDS011;42305;51.444;-2.584;2022-08-07T04:32:50;4.20;;;4.10;;
56405;SDS011;42305;51.444;-2.584;2022-08-07T04:35:16;4.00;;;3.90;;
56405;SDS011;42305;51.444;-2.584;2022-08-07T04:37:42;3.92;;;3.83;;
56405;SDS011;42305;51.444;-2.584;2022-08-07T04:40:09;4.10;;;4.00;;
56405;SDS011;42305;51.444;-2.584;2022-08-07T04:42:35;4.25;;;4.15;;
56405;SDS011;42305;51.444;-2.584;2022-08-07T04:45:02;3.80;;;3.70;;
56405;SDS011;42305;51.444;-2.584;2022-08-07T04:47:34;4.30;;;4.20;;
56405;SDS011;42305;51.444;-2.584;2022-08-07T05:00:13;4.30;;;4.20;;
56405;SDS011;42305;51.444;-2.584;2022-08-07T05:05:12;4.10;;;4.00;;
56405;SDS011;42305;51.444;-2.584;2022-08-07T05:07:41;4.30;;;4.20;;
56405;SDS011;42305;51.444;-2.584;2022-08-07T05:12:55;4.60;;;4.50;;
56405;SDS011;42305;51.444;-2.584;2022-08-07T05:15:27;4.10;;;4.00;;
56405;SDS011;42305;51.444;-2.584;2022-08-07T05:17:56;4.00;;;3.90;;
56405;SDS011;42305;51.444;-2.584;2022-08-07T05:20:25;4.10;;;4.00;;
56405;SDS011;42305;51.444;-2.584;2022-08-07T05:22:52;5.65;;;5.45;;
56405;SDS011;42305;51.444;-2.584;2022-08-07T05:25:19;3.80;;;3.70;;
56405;SDS011;42305;51.444;-2.584;2022-08-07T05:27:46;4.40;;;4.30;;
56405;SDS011;42305;51.444;-2.584;2022-08-07T05:30:13;4.20;;;4.10;;
56405;SDS011;42305;51.444;-2.584;2022-08-07T05:32:41;4.00;;;3.90;;
56405;SDS011;42305;51.444;-2.584;2022-08-07T05:35:11;4.10;;;4.00;;
56405;SDS011;42305;51.444;-2.584;2022-08-07T05:37:37;4.00;;;3.90;;
56405;SDS011;42305;51.444;-2.584;2022-08-07T05:40:04;4.20;;;4.10;;
56405;SDS011;42305;51.444;-2.584;2022-08-07T05:42:30;4.40;;;4.30;;
56405;SDS011;42305;51.444;-2.584;2022-08-07T05:44:57;4.20;;;4.10;;
56405;SDS011;42305;51.444;-2.584;2022-08-07T05:47:23;4.20;;;4.10;;
56405;SDS011;42305;51.444;-2.584;2022-08-07T05:49:50;4.15;;;4.05;;
56405;SDS011;42305;51.444;-2.584;2022-08-07T05:52:17;3.88;;;3.78;;
56405;SDS011;42305;51.444;-2.584;2022-08-07T05:54:43;3.90;;;3.80;;
56405;SDS011;42305;51.444;-2.584;2022-08-07T05:57:09;4.00;;;3.90;;
56405;SDS011;42305;51.444;-2.584;2022-08-07T05:59:36;3.88;;;3.78;;
56405;SDS011;42305;51.444;-2.584;2022-08-07T06:02:04;3.97;;;3.88;;
56405;SDS011;42305;51.444;-2.584;2022-08-07T06:04:30;3.80;;;3.70;;
56405;SDS011;42305;51.444;-2.584;2022-08-07T06:06:57;3.80;;;3.70;;
56405;SDS011;42305;51.444;-2.584;2022-08-07T06:09:27;4.10;;;4.00;;
56405;SDS011;42305;51.444;-2.584;2022-08-07T06:11:54;4.00;;;3.90;;
56405;SDS011;42305;51.444;-2.584;2022-08-07T06:14:20;3.90;;;3.80;;
56405;SDS011;42305;51.444;-2.584;2022-08-07T06:16:46;3.90;;;3.80;;
56405;SDS011;42305;51.444;-2.584;2022-08-07T06:19:13;3.70;;;3.60;;
56405;SDS011;42305;51.444;-2.584;2022-08-07T06:21:40;3.90;;;3.80;;
56405;SDS011;42305;51.444;-2.584;2022-08-07T06:24:06;3.80;;;3.70;;
56405;SDS011;42305;51.444;-2.584;2022-08-07T06:26:32;3.90;;;3.80;;
56405;SDS011;42305;51.444;-2.584;2022-08-07T06:28:58;4.10;;;4.00;;
56405;SDS011;42305;51.444;-2.584;2022-08-07T06:31:25;3.90;;;3.80;;
56405;SDS011;42305;51.444;-2.584;2022-08-07T06:33:51;3.80;;;3.70;;
56405;SDS011;42305;51.444;-2.584;2022-08-07T06:36:18;3.70;;;3.60;;
56405;SDS011;42305;51.444;-2.584;2022-08-07T06:38:44;3.55;;;3.45;;
56405;SDS011;42305;51.444;-2.584;2022-08-07T06:41:21;3.90;;;3.80;;
56405;SDS011;42305;51.444;-2.584;2022-08-07T06:43:48;3.60;;;3.50;;
56405;SDS011;42305;51.444;-2.584;2022-08-07T06:46:16;3.60;;;3.50;;
56405;SDS011;42305;51.444;-2.584;2022-08-07T06:48:42;3.80;;;3.70;;
56405;SDS011;42305;51.444;-2.584;2022-08-07T06:51:09;3.78;;;3.67;;
56405;SDS011;42305;51.444;-2.584;2022-08-07T06:53:35;3.20;;;3.20;;
56405;SDS011;42305;51.444;-2.584;2022-08-07T06:56:04;3.50;;;3.40;;
56405;SDS011;42305;51.444;-2.584;2022-08-07T06:58:31;2.80;;;2.80;;
56405;SDS011;42305;51.444;-2.584;2022-08-07T07:00:59;2.90;;;2.90;;
56405;SDS011;42305;51.444;-2.584;2022-08-07T07:03:27;2.80;;;2.80;;
56405;SDS011;42305;51.444;-2.584;2022-08-07T07:05:53;3.63;;;3.53;;
56405;SDS011;42305;51.444;-2.584;2022-08-07T07:08:23;3.33;;;3.33;;
56405;SDS011;42305;51.444;-2.584;2022-08-07T07:10:52;2.88;;;2.88;;
56405;SDS011;42305;51.444;-2.584;2022-08-07T07:13:21;2.95;;;2.95;;
56405;SDS011;42305;51.444;-2.584;2022-08-07T07:15:51;2.75;;;2.75;;
56405;SDS011;42305;51.444;-2.584;2022-08-07T07:18:24;3.50;;;3.40;;
56405;SDS011;42305;51.444;-2.584;2022-08-07T07:20:52;2.78;;;2.78;;
56405;SDS011;42305;51.444;-2.584;2022-08-07T07:23:20;3.13;;;3.13;;
56405;SDS011;42305;51.444;-2.584;2022-08-07T07:25:47;3.20;;;3.20;;
56405;SDS011;42305;51.444;-2.584;2022-08-07T07:30:44;2.60;;;2.60;;
56405;SDS011;42305;51.444;-2.584;2022-08-07T07:33:11;2.65;;;2.65;;
56405;SDS011;42305;51.444;-2.584;2022-08-07T07:35:39;3.05;;;3.05;;
56405;SDS011;42305;51.444;-2.584;2022-08-07T07:38:06;2.60;;;2.60;;
56405;SDS011;42305;51.444;-2.584;2022-08-07T07:40:33;2.70;;;2.70;;
56405;SDS011;42305;51.444;-2.584;2022-08-07T07:42:59;2.65;;;2.65;;
56405;SDS011;42305;51.444;-2.584;2022-08-07T07:45:27;2.60;;;2.60;;
56405;SDS011;42305;51.444;-2.584;2022-08-07T07:47:54;2.88;;;2.88;;
56405;SDS011;42305;51.444;-2.584;2022-08-07T07:50:22;2.30;;;2.30;;
56405;SDS011;42305;51.444;-2.584;2022-08-07T07:52:48;2.50;;;2.50;;
56405;SDS011;42305;51.444;-2.584;2022-08-07T07:55:17;2.70;;;2.70;;
56405;SDS011;42305;51.444;-2.584;2022-08-07T07:57:43;2.50;;;2.50;;
56405;SDS011;42305;51.444;-2.584;2022-08-07T08:00:11;2.50;;;2.50;;
56405;SDS011;42305;51.444;-2.584;2022-08-07T08:02:38;2.33;;;2.33;;
56405;SDS011;42305;51.444;-2.584;2022-08-07T08:05:07;2.17;;;2.17;;
56405;SDS011;42305;51.444;-2.584;2022-08-07T08:07:34;2.20;;;2.20;;
56405;SDS011;42305;51.444;-2.584;2022-08-07T08:10:01;2.13;;;2.13;;
56405;SDS011;42305;51.444;-2.584;2022-08-07T08:12:27;2.30;;;2.30;;
56405;SDS011;42305;51.444;-2.584;2022-08-07T08:14:54;1.83;;;1.83;;
56405;SDS011;42305;51.444;-2.584;2022-08-07T08:17:20;2.25;;;2.25;;
56405;SDS011;42305;51.444;-2.584;2022-08-07T08:19:46;2.10;;;2.10;;
56405;SDS011;42305;51.444;-2.584;2022-08-07T08:22:14;2.15;;;2.15;;
56405;SDS011;42305;51.444;-2.584;2022-08-07T08:25:00;1.80;;;1.80;;
56405;SDS011;42305;51.444;-2.584;2022-08-07T08:27:46;2.30;;;2.30;;
56405;SDS011;42305;51.444;-2.584;2022-08-07T08:30:14;1.77;;;1.77;;
56405;SDS011;42305;51.444;-2.584;2022-08-07T08:32:42;1.83;;;1.83;;
56405;SDS011;42305;51.444;-2.584;2022-08-07T08:35:09;1.88;;;1.88;;
56405;SDS011;42305;51.444;-2.584;2022-08-07T08:37:36;1.70;;;1.70;;
56405;SDS011;42305;51.444;-2.584;2022-08-07T08:40:08;1.90;;;1.90;;
56405;SDS011;42305;51.444;-2.584;2022-08-07T08:42:45;1.90;;;1.90;;
56405;SDS011;42305;51.444;-2.584;2022-08-07T08:45:18;1.60;;;1.60;;
56405;SDS011;42305;51.444;-2.584;2022-08-07T08:50:31;1.60;;;1.60;;
56405;SDS011;42305;51.444;-2.584;2022-08-07T08:55:43;1.70;;;1.70;;
56405;SDS011;42305;51.444;-2.584;2022-08-07T08:58:11;1.88;;;1.88;;
56405;SDS011;42305;51.444;-2.584;2022-08-07T09:00:47;1.45;;;1.45;;
56405;SDS011;42305;51.444;-2.584;2022-08-07T09:03:28;1.60;;;1.60;;
56405;SDS011;42305;51.444;-2.584;2022-08-07T09:11:39;1.90;;;1.90;;
56405;SDS011;42305;51.444;-2.584;2022-08-07T09:25:07;1.83;;;1.83;;
56405;SDS011;42305;51.444;-2.584;2022-08-07T09:30:04;1.75;;;1.75;;
56405;SDS011;42305;51.444;-2.584;2022-08-07T09:37:50;1.42;;;1.42;;
56405;SDS011;42305;51.444;-2.584;2022-08-07T09:42:51;2.00;;;2.00;;
56405;SDS011;42305;51.444;-2.584;2022-08-07T09:53:34;1.33;;;1.33;;
56405;SDS011;42305;51.444;-2.584;2022-08-07T09:56:07;1.63;;;1.63;;
56405;SDS011;42305;51.444;-2.584;2022-08-07T10:11:43;1.60;;;1.60;;
56405;SDS011;42305;51.444;-2.584;2022-08-07T10:19:42;1.60;;;1.50;;
56405;SDS011;42305;51.444;-2.584;2022-08-07T10:30:10;1.40;;;1.40;;
56405;SDS011;42305;51.444;-2.584;2022-08-07T10:42:57;1.45;;;1.45;;
56405;SDS011;42305;51.444;-2.584;2022-08-07T10:45:30;1.63;;;1.63;;
56405;SDS011;42305;51.444;-2.584;2022-08-07T10:48:02;1.40;;;1.40;;
56405;SDS011;42305;51.444;-2.584;2022-08-07T10:50:41;1.20;;;1.20;;
56405;SDS011;42305;51.444;-2.584;2022-08-07T10:53:21;1.20;;;1.20;;
56405;SDS011;42305;51.444;-2.584;2022-08-07T10:55:59;1.00;;;1.00;;
56405;SDS011;42305;51.444;-2.584;2022-08-07T11:01:03;4.63;;;2.17;;
56405;SDS011;42305;51.444;-2.584;2022-08-07T11:03:37;1.23;;;1.23;;
56405;SDS011;42305;51.444;-2.584;2022-08-07T11:06:15;1.65;;;1.65;;
56405;SDS011;42305;51.444;-2.584;2022-08-07T11:16:19;1.10;;;1.10;;
56405;SDS011;42305;51.444;-2.584;2022-08-07T11:21:36;1.10;;;1.10;;
56405;SDS011;42305;51.444;-2.584;2022-08-07T11:26:50;1.00;;;1.00;;
56405;SDS011;42305;51.444;-2.584;2022-08-07T11:32:01;1.30;;;1.30;;
56405;SDS011;42305;51.444;-2.584;2022-08-07T11:41:59;0.90;;;0.90;;
56405;SDS011;42305;51.444;-2.584;2022-08-07T11:44:35;0.90;;;0.90;;
56405;SDS011;42305;51.444;-2.584;2022-08-07T12:09:12;0.30;;;0.30;;
56405;SDS011;42305;51.444;-2.584;2022-08-07T12:11:45;1.40;;;0.75;;
56405;SDS011;42305;51.444;-2.584;2022-08-07T12:14:20;0.30;;;0.30;;
56405;SDS011;42305;51.444;-2.584;2022-08-07T12:16:52;0.50;;;0.50;;
56405;SDS011;42305;51.444;-2.584;2022-08-07T12:24:32;0.68;;;0.68;;
56405;SDS011;42305;51.444;-2.584;2022-08-07T12:27:19;2.28;;;1.08;;
56405;SDS011;42305;51.444;-2.584;2022-08-07T12:34:39;0.50;;;0.50;;
56405;SDS011;42305;51.444;-2.584;2022-08-07T12:37:07;0.50;;;0.50;;
56405;SDS011;42305;51.444;-2.584;2022-08-07T12:39:35;0.30;;;0.30;;
56405;SDS011;42305;51.444;-2.584;2022-08-07T12:42:01;0.43;;;0.43;;
56405;SDS011;42305;51.444;-2.584;2022-08-07T12:44:28;0.30;;;0.30;;
56405;SDS011;42305;51.444;-2.584;2022-08-07T12:49:36;0.47;;;0.47;;
56405;SDS011;42305;51.444;-2.584;2022-08-07T12:52:11;0.30;;;0.30;;
56405;SDS011;42305;51.444;-2.584;2022-08-07T12:57:10;0.22;;;0.22;;
56405;SDS011;42305;51.444;-2.584;2022-08-07T12:59:37;0.10;;;0.10;;
56405;SDS011;42305;51.444;-2.584;2022-08-07T13:10:29;0.10;;;0.10;;
56405;SDS011;42305;51.444;-2.584;2022-08-07T13:18:02;0.00;;;0.00;;
56405;SDS011;42305;51.444;-2.584;2022-08-07T13:20:34;0.15;;;0.15;;
56405;SDS011;42305;51.444;-2.584;2022-08-07T13:23:13;0.00;;;0.00;;
56405;SDS011;42305;51.444;-2.584;2022-08-07T13:25:51;0.15;;;0.15;;
56405;SDS011;42305;51.444;-2.584;2022-08-07T13:28:26;0.30;;;0.30;;
56405;SDS011;42305;51.444;-2.584;2022-08-07T13:30:57;0.10;;;0.10;;
56405;SDS011;42305;51.444;-2.584;2022-08-07T13:33:43;0.10;;;0.10;;
56405;SDS011;42305;51.444;-2.584;2022-08-07T13:36:13;0.10;;;0.10;;
56405;SDS011;42305;51.444;-2.584;2022-08-07T13:41:41;0.13;;;0.13;;
56405;SDS011;42305;51.444;-2.584;2022-08-07T13:44:08;0.10;;;0.10;;
56405;SDS011;42305;51.444;-2.584;2022-08-07T13:46:40;0.13;;;0.13;;
56405;SDS011;42305;51.444;-2.584;2022-08-07T13:49:06;2.75;;;0.30;;
56405;SDS011;42305;51.444;-2.584;2022-08-07T13:51:33;0.10;;;0.10;;
56405;SDS011;42305;51.444;-2.584;2022-08-07T13:54:05;0.10;;;0.10;;
56405;SDS011;42305;51.444;-2.584;2022-08-07T13:56:34;0.00;;;0.00;;
56405;SDS011;42305;51.444;-2.584;2022-08-07T13:59:01;0.10;;;0.10;;
56405;SDS011;42305;51.444;-2.584;2022-08-07T14:03:54;1.88;;;0.25;;
56405;SDS011;42305;51.444;-2.584;2022-08-07T14:06:21;6.72;;;0.10;;
56405;SDS011;42305;51.444;-2.584;2022-08-07T14:08:50;0.32;;;0.10;;
56405;SDS011;42305;51.444;-2.584;2022-08-07T14:11:18;0.17;;;0.17;;
56405;SDS011;42305;51.444;-2.584;2022-08-07T14:13:46;0.10;;;0.10;;
56405;SDS011;42305;51.444;-2.584;2022-08-07T14:16:17;0.22;;;0.20;;
56405;SDS011;42305;51.444;-2.584;2022-08-07T14:18:44;0.10;;;0.10;;
56405;SDS011;42305;51.444;-2.584;2022-08-07T14:21:12;0.30;;;0.30;;
56405;SDS011;42305;51.444;-2.584;2022-08-07T14:23:42;0.35;;;0.35;;
56405;SDS011;42305;51.444;-2.584;2022-08-07T14:26:13;0.13;;;0.13;;
56405;SDS011;42305;51.444;-2.584;2022-08-07T14:28:43;0.47;;;0.20;;
56405;SDS011;42305;51.444;-2.584;2022-08-07T14:31:10;0.10;;;0.10;;
56405;SDS011;42305;51.444;-2.584;2022-08-07T14:33:36;0.00;;;0.00;;
56405;SDS011;42305;51.444;-2.584;2022-08-07T14:36:03;0.00;;;0.00;;
56405;SDS011;42305;51.444;-2.584;2022-08-07T14:38:31;0.00;;;0.00;;
56405;SDS011;42305;51.444;-2.584;2022-08-07T14:40:59;0.00;;;0.00;;
56405;SDS011;42305;51.444;-2.584;2022-08-07T14:43:26;0.05;;;0.05;;
56405;SDS011;42305;51.444;-2.584;2022-08-07T14:45:57;1.55;;;0.68;;
56405;SDS011;42305;51.444;-2.584;2022-08-07T14:50:51;0.00;;;0.00;;
56405;SDS011;42305;51.444;-2.584;2022-08-07T14:53:18;0.00;;;0.00;;
56405;SDS011;42305;51.444;-2.584;2022-08-07T14:55:44;0.00;;;0.00;;
56405;SDS011;42305;51.444;-2.584;2022-08-07T14:58:11;0.00;;;0.00;;
56405;SDS011;42305;51.444;-2.584;2022-08-07T15:00:38;0.30;;;0.10;;
56405;SDS011;42305;51.444;-2.584;2022-08-07T15:03:06;0.10;;;0.10;;
56405;SDS011;42305;51.444;-2.584;2022-08-07T15:05:33;0.00;;;0.00;;
56405;SDS011;42305;51.444;-2.584;2022-08-07T15:07:59;0.00;;;0.00;;
56405;SDS011;42305;51.444;-2.584;2022-08-07T15:10:28;0.75;;;0.30;;
56405;SDS011;42305;51.444;-2.584;2022-08-07T15:12:58;0.10;;;0.10;;
56405;SDS011;42305;51.444;-2.584;2022-08-07T15:15:33;0.00;;;0.00;;
56405;SDS011;42305;51.444;-2.584;2022-08-07T15:18:01;0.10;;;0.10;;
56405;SDS011;42305;51.444;-2.584;2022-08-07T15:20:29;0.03;;;0.03;;
56405;SDS011;42305;51.444;-2.584;2022-08-07T15:22:58;0.43;;;0.10;;
56405;SDS011;42305;51.444;-2.584;2022-08-07T15:25:26;0.30;;;0.30;;
56405;SDS011;42305;51.444;-2.584;2022-08-07T15:27:59;3.92;;;0.10;;
56405;SDS011;42305;51.444;-2.584;2022-08-07T15:32:52;0.00;;;0.00;;
56405;SDS011;42305;51.444;-2.584;2022-08-07T15:35:19;0.00;;;0.00;;
56405;SDS011;42305;51.444;-2.584;2022-08-07T15:37:52;0.00;;;0.00;;
56405;SDS011;42305;51.444;-2.584;2022-08-07T15:40:19;0.00;;;0.00;;
56405;SDS011;42305;51.444;-2.584;2022-08-07T15:45:24;0.38;;;0.38;;
56405;SDS011;42305;51.444;-2.584;2022-08-07T15:47:53;0.00;;;0.00;;
56405;SDS011;42305;51.444;-2.584;2022-08-07T15:50:20;2.80;;;0.30;;
56405;SDS011;42305;51.444;-2.584;2022-08-07T15:52:51;0.00;;;0.00;;
56405;SDS011;42305;51.444;-2.584;2022-08-07T15:55:22;0.17;;;0.17;;
56405;SDS011;42305;51.444;-2.584;2022-08-07T15:57:50;0.00;;;0.00;;
56405;SDS011;42305;51.444;-2.584;2022-08-07T16:00:17;0.00;;;0.00;;
56405;SDS011;42305;51.444;-2.584;2022-08-07T16:02:44;0.00;;;0.00;;
56405;SDS011;42305;51.444;-2.584;2022-08-07T16:05:16;0.00;;;0.00;;
56405;SDS011;42305;51.444;-2.584;2022-08-07T16:08:28;0.00;;;0.00;;
56405;SDS011;42305;51.444;-2.584;2022-08-07T16:10:29;0.00;;;0.00;;
56405;SDS011;42305;51.444;-2.584;2022-08-07T16:15:37;0.00;;;0.00;;
56405;SDS011;42305;51.444;-2.584;2022-08-07T16:18:18;0.22;;;0.05;;
56405;SDS011;42305;51.444;-2.584;2022-08-07T16:23:31;0.00;;;0.00;;
56405;SDS011;42305;51.444;-2.584;2022-08-07T16:28:42;0.05;;;0.05;;
56405;SDS011;42305;51.444;-2.584;2022-08-07T16:33:39;0.00;;;0.00;;
56405;SDS011;42305;51.444;-2.584;2022-08-07T16:38:56;0.00;;;0.00;;
56405;SDS011;42305;51.444;-2.584;2022-08-07T16:46:32;0.00;;;0.00;;
56405;SDS011;42305;51.444;-2.584;2022-08-07T16:51:39;0.00;;;0.00;;
56405;SDS011;42305;51.444;-2.584;2022-08-07T17:01:38;0.00;;;0.00;;
56405;SDS011;42305;51.444;-2.584;2022-08-07T17:04:17;0.00;;;0.00;;
56405;SDS011;42305;51.444;-2.584;2022-08-07T17:09:18;0.73;;;0.52;;
56405;SDS011;42305;51.444;-2.584;2022-08-07T17:11:56;0.10;;;0.10;;
56405;SDS011;42305;51.444;-2.584;2022-08-07T17:17:13;0.15;;;0.15;;
56405;SDS011;42305;51.444;-2.584;2022-08-07T17:19:44;0.40;;;0.40;;
56405;SDS011;42305;51.444;-2.584;2022-08-07T17:22:15;2.10;;;1.67;;
56405;SDS011;42305;51.444;-2.584;2022-08-07T17:27:37;0.60;;;0.60;;
56405;SDS011;42305;51.444;-2.584;2022-08-07T17:30:05;0.68;;;0.68;;
56405;SDS011;42305;51.444;-2.584;2022-08-07T17:32:46;0.60;;;0.60;;
56405;SDS011;42305;51.444;-2.584;2022-08-07T17:35:31;1.52;;;1.48;;
56405;SDS011;42305;51.444;-2.584;2022-08-07T17:38:04;0.70;;;0.70;;
56405;SDS011;42305;51.444;-2.584;2022-08-07T17:40:37;0.70;;;0.70;;
56405;SDS011;42305;51.444;-2.584;2022-08-07T17:43:05;0.90;;;0.90;;
56405;SDS011;42305;51.444;-2.584;2022-08-07T17:45:38;0.80;;;0.80;;
56405;SDS011;42305;51.444;-2.584;2022-08-07T17:48:14;0.73;;;0.73;;
56405;SDS011;42305;51.444;-2.584;2022-08-07T17:50:48;1.95;;;0.80;;
56405;SDS011;42305;51.444;-2.584;2022-08-07T17:53:24;0.80;;;0.80;;
56405;SDS011;42305;51.444;-2.584;2022-08-07T17:55:59;0.90;;;0.90;;
56405;SDS011;42305;51.444;-2.584;2022-08-07T17:58:32;0.93;;;0.93;;
56405;SDS011;42305;51.444;-2.584;2022-08-07T18:01:01;0.68;;;0.68;;
56405;SDS011;42305;51.444;-2.584;2022-08-07T18:03:34;0.90;;;0.90;;
56405;SDS011;42305;51.444;-2.584;2022-08-07T18:06:07;0.80;;;0.80;;
56405;SDS011;42305;51.444;-2.584;2022-08-07T18:16:07;0.90;;;0.90;;
56405;SDS011;42305;51.444;-2.584;2022-08-07T18:18:39;0.90;;;0.90;;
56405;SDS011;42305;51.444;-2.584;2022-08-07T18:21:16;0.98;;;0.98;;
56405;SDS011;42305;51.444;-2.584;2022-08-07T18:29:05;1.95;;;1.90;;
56405;SDS011;42305;51.444;-2.584;2022-08-07T18:39:05;1.10;;;1.10;;
56405;SDS011;42305;51.444;-2.584;2022-08-07T18:44:38;1.42;;;1.42;;
56405;SDS011;42305;51.444;-2.584;2022-08-07T18:48:12;1.10;;;1.10;;